Time;durP1;ratioP1;P1;durP2;ratioP2;P2;SDS_P1;SDS_P2;PMS_P1;PMS_P2;Temp;Humidity;BMP_temperature;BMP_pressure;BME280_temperature;BME280_humidity;BME280_pressure;Samples;Min_cycle;Max_cycle;Signal;HPM_P1;HPM_P2
2021/03/15 00:01:19;;;;;;;1999.90;999.90;;;;;;;;;;5141446;27;20224;-39
2021/03/15 00:04:06;;;;;;;1999.90;999.90;;;;;;;;;;5141620;27;20638;-36
2021/03/15 00:06:51;;;;;;;1999.90;999.90;;;;;;;;;;5141639;27;20212;-36
2021/03/15 00:09:39;;;;;;;1999.90;999.90;;;;;;;;;;5140987;27;20208;-37
2021/03/15 00:12:33;;;;;;;1999.90;999.90;;;;;;;;;;5141292;27;20601;-40
2021/03/15 00:15:20;;;;;;;1999.90;999.90;;;;;;;;;;5141308;27;20211;-39
2021/03/15 00:18:07;;;;;;;1999.90;999.90;;;;;;;;;;5141355;27;20277;-41
2021/03/15 00:20:53;;;;;;;1999.90;999.90;;;;;;;;;;5141419;27;20232;-40
2021/03/15 00:23:39;;;;;;;1999.90;999.90;;;;;;;;;;5141196;27;20605;-44
2021/03/15 00:26:25;;;;;;;1999.90;999.90;;;;;;;;;;5141236;27;20202;-37
2021/03/15 00:29:21;;;;;;;1999.90;999.90;;;;;;;;;;5141434;27;20468;-36
2021/03/15 00:32:07;;;;;;;1999.90;999.90;;;;;;;;;;5140958;27;20198;-38
2021/03/15 00:34:54;;;;;;;1999.90;999.90;;;;;;;;;;5141184;27;20597;-39
2021/03/15 00:37:40;;;;;;;1999.90;999.90;;;;;;;;;;5141153;27;20510;-37
2021/03/15 00:40:25;;;;;;;1999.90;999.90;;;;;;;;;;5141028;27;20233;-36
2021/03/15 00:43:14;;;;;;;1999.90;999.90;;;;;;;;;;5140785;27;20204;-39
2021/03/15 00:46:00;;;;;;;1999.90;999.90;;;;;;;;;;5140766;27;20220;-39
2021/03/15 00:48:47;;;;;;;1999.90;999.90;;;;;;;;;;5140554;27;20348;-40
2021/03/15 00:51:35;;;;;;;1999.90;999.90;;;;;;;;;;5140212;27;20251;-40
2021/03/15 00:54:24;;;;;;;1999.90;999.90;;;;;;;;;;5140595;27;20197;-35
2021/03/15 00:57:09;;;;;;;1999.90;999.90;;;;;;;;;;5140660;27;20207;-37
2021/03/15 00:59:58;;;;;;;1999.90;999.90;;;;;;;;;;5140302;27;20664;-40
2021/03/15 01:02:46;;;;;;;1999.90;999.90;;;;;;;;;;5140166;27;20219;-39
2021/03/15 01:05:35;;;;;;;1999.90;999.90;;;;;;;;;;5140184;27;20208;-37
2021/03/15 01:08:24;;;;;;;1999.90;999.90;;;;;;;;;;5140279;27;20246;-41
2021/03/15 01:11:13;;;;;;;1999.90;999.90;;;;;;;;;;5140184;27;20265;-38
2021/03/15 01:13:59;;;;;;;1999.90;999.90;;;;;;;;;;5140012;27;20324;-38
2021/03/15 01:16:45;;;;;;;1999.90;999.90;;;;;;;;;;5140342;27;20349;-36
2021/03/15 01:19:31;;;;;;;1999.90;999.90;;;;;;;;;;5140324;27;20257;-36
2021/03/15 01:22:16;;;;;;;1999.90;999.90;;;;;;;;;;5140183;27;20204;-41
2021/03/15 01:25:03;;;;;;;1999.90;999.90;;;;;;;;;;5140284;27;20532;-40
2021/03/15 01:27:49;;;;;;;1999.90;999.90;;;;;;;;;;5140399;27;20190;-39
2021/03/15 01:30:35;;;;;;;1999.90;999.90;;;;;;;;;;5139930;27;20292;-40
2021/03/15 01:33:22;;;;;;;1999.90;999.90;;;;;;;;;;5139710;27;20321;-36
2021/03/15 01:36:11;;;;;;;1999.90;999.90;;;;;;;;;;5139705;27;20598;-41
2021/03/15 01:38:56;;;;;;;1999.90;999.90;;;;;;;;;;5139909;27;20201;-39
2021/03/15 01:41:43;;;;;;;1999.90;999.90;;;;;;;;;;5139788;27;20232;-37
2021/03/15 01:44:29;;;;;;;1999.90;999.90;;;;;;;;;;5139644;27;20200;-38
2021/03/15 01:47:16;;;;;;;1999.90;999.90;;;;;;;;;;5139983;27;20423;-39
2021/03/15 01:50:02;;;;;;;1999.90;999.90;;;;;;;;;;5139422;27;20630;-39
2021/03/15 01:52:51;;;;;;;1999.90;999.90;;;;;;;;;;5139729;27;20305;-38
2021/03/15 01:55:37;;;;;;;1999.90;999.90;;;;;;;;;;5139318;27;20202;-40
2021/03/15 01:58:24;;;;;;;1999.90;999.90;;;;;;;;;;5138975;27;20204;-40
2021/03/15 02:01:10;;;;;;;1999.90;999.90;;;;;;;;;;5139531;27;20269;-37
2021/03/15 02:03:56;;;;;;;1999.90;999.90;;;;;;;;;;5138959;27;20639;-38
2021/03/15 02:06:41;;;;;;;1999.90;999.90;;;;;;;;;;5139417;27;20249;-38
2021/03/15 02:09:27;;;;;;;1999.90;999.90;;;;;;;;;;5139003;27;20201;-37
2021/03/15 02:12:21;;;;;;;1999.90;999.90;;;;;;;;;;5138643;27;20199;-38
2021/03/15 02:15:15;;;;;;;1999.90;999.90;;;;;;;;;;5139129;27;20200;-35
2021/03/15 02:18:05;;;;;;;1999.90;999.90;;;;;;;;;;5138844;27;20203;-38
2021/03/15 02:21:16;;;;;;;1999.90;999.90;;;;;;;;;;5138922;27;20223;-36
2021/03/15 02:24:05;;;;;;;1999.90;999.90;;;;;;;;;;5138555;27;20194;-38
2021/03/15 02:27:05;;;;;;;1999.90;999.90;;;;;;;;;;5137498;27;20248;-36
2021/03/15 02:30:03;;;;;;;1999.90;999.90;;;;;;;;;;5136876;27;20242;-41
2021/03/15 02:33:02;;;;;;;1999.90;999.90;;;;;;;;;;5137039;27;20203;-36
2021/03/15 02:35:50;;;;;;;1999.90;999.90;;;;;;;;;;5136745;27;20198;-36
2021/03/15 02:38:37;;;;;;;1999.90;999.90;;;;;;;;;;5136926;27;20217;-38
2021/03/15 02:41:24;;;;;;;1999.90;999.90;;;;;;;;;;5136755;27;20231;-37
2021/03/15 02:44:11;;;;;;;1999.90;999.90;;;;;;;;;;5138158;27;20643;-37
2021/03/15 02:47:01;;;;;;;1999.90;999.90;;;;;;;;;;5138247;27;20297;-38
2021/03/15 02:49:48;;;;;;;1999.90;999.90;;;;;;;;;;5137953;27;20207;-38
2021/03/15 02:52:37;;;;;;;1999.90;999.90;;;;;;;;;;5138191;27;20367;-39
2021/03/15 02:55:26;;;;;;;1999.90;999.90;;;;;;;;;;5138153;27;20202;-38
2021/03/15 02:58:12;;;;;;;1999.90;999.90;;;;;;;;;;5138140;27;20191;-39
2021/03/15 03:01:00;;;;;;;1999.90;999.90;;;;;;;;;;5138214;27;20227;-40
2021/03/15 03:03:48;;;;;;;1999.90;999.90;;;;;;;;;;5138153;27;20299;-38
2021/03/15 03:06:34;;;;;;;1999.90;999.90;;;;;;;;;;5138384;27;20476;-34
2021/03/15 03:09:24;;;;;;;1999.90;999.90;;;;;;;;;;5138363;27;20479;-39
2021/03/15 03:12:10;;;;;;;1999.90;999.90;;;;;;;;;;5137597;27;20599;-40
2021/03/15 03:14:56;;;;;;;1999.90;999.90;;;;;;;;;;5138397;27;20321;-41
2021/03/15 03:17:43;;;;;;;1999.90;999.90;;;;;;;;;;5138175;27;20268;-41
2021/03/15 03:20:30;;;;;;;1999.90;999.90;;;;;;;;;;5137847;27;20508;-39
2021/03/15 03:23:17;;;;;;;1999.90;999.90;;;;;;;;;;5137785;27;20201;-40
2021/03/15 03:26:05;;;;;;;1999.90;999.90;;;;;;;;;;5138219;27;20213;-38
2021/03/15 03:28:51;;;;;;;1999.90;999.90;;;;;;;;;;5137733;28;20298;-35
2021/03/15 03:31:39;;;;;;;1999.90;999.90;;;;;;;;;;5137628;28;20332;-38
2021/03/15 03:34:25;;;;;;;1999.90;999.90;;;;;;;;;;5138217;28;20268;-39
2021/03/15 03:37:12;;;;;;;1999.90;999.90;;;;;;;;;;5137932;28;20219;-36
2021/03/15 03:39:58;;;;;;;1999.90;999.90;;;;;;;;;;5137939;28;20599;-39
2021/03/15 03:42:45;;;;;;;1999.90;999.90;;;;;;;;;;5137988;28;20266;-38
2021/03/15 03:45:31;;;;;;;1999.90;999.90;;;;;;;;;;5137663;28;20704;-38
2021/03/15 03:48:17;;;;;;;1999.90;999.90;;;;;;;;;;5137833;28;20197;-41
2021/03/15 03:51:04;;;;;;;1999.90;999.90;;;;;;;;;;5137608;28;20518;-37
2021/03/15 03:53:50;;;;;;;1999.90;999.90;;;;;;;;;;5137403;28;20197;-41
2021/03/15 03:56:38;;;;;;;1999.90;999.90;;;;;;;;;;5137935;28;20199;-41
2021/03/15 03:59:26;;;;;;;1999.90;999.90;;;;;;;;;;5137637;28;20467;-38
2021/03/15 04:02:12;;;;;;;1999.90;999.90;;;;;;;;;;5137329;28;20249;-39
2021/03/15 04:05:00;;;;;;;1999.90;999.90;;;;;;;;;;5137266;28;20739;-36
2021/03/15 04:07:49;;;;;;;1999.90;999.90;;;;;;;;;;5137974;28;20291;-42
2021/03/15 04:10:36;;;;;;;1999.90;999.90;;;;;;;;;;5137480;28;20475;-38
2021/03/15 04:13:23;;;;;;;1999.90;999.90;;;;;;;;;;5137538;28;20202;-39
2021/03/15 04:16:10;;;;;;;1999.90;999.90;;;;;;;;;;5137536;28;20296;-36
2021/03/15 04:19:00;;;;;;;1999.90;999.90;;;;;;;;;;5137327;28;20215;-39
2021/03/15 04:21:45;;;;;;;1999.90;999.90;;;;;;;;;;5137378;28;20231;-40
2021/03/15 04:24:31;;;;;;;1999.90;999.90;;;;;;;;;;5137800;27;20213;-39
2021/03/15 04:27:18;;;;;;;1999.90;999.90;;;;;;;;;;5141303;27;20312;-36
2021/03/15 04:30:04;;;;;;;1999.90;999.90;;;;;;;;;;5140468;27;20219;-39
2021/03/15 04:32:53;;;;;;;1999.90;999.90;;;;;;;;;;5140998;27;20199;-39
2021/03/15 04:35:41;;;;;;;1999.90;999.90;;;;;;;;;;5141152;27;20198;-37
2021/03/15 04:38:27;;;;;;;1999.90;999.90;;;;;;;;;;5140809;27;20203;-41
2021/03/15 04:41:12;;;;;;;1999.90;999.90;;;;;;;;;;5140760;27;20502;-40
2021/03/15 04:43:58;;;;;;;1999.90;999.90;;;;;;;;;;5140642;27;20344;-36
2021/03/15 04:46:44;;;;;;;1999.90;999.90;;;;;;;;;;5140638;27;20198;-39
2021/03/15 04:49:32;;;;;;;1999.90;999.90;;;;;;;;;;5140660;27;20253;-37
2021/03/15 04:52:18;;;;;;;1999.90;999.90;;;;;;;;;;5140498;27;20210;-38
2021/03/15 04:55:04;;;;;;;1999.90;999.90;;;;;;;;;;5140093;27;20607;-40
2021/03/15 04:57:51;;;;;;;1999.90;999.90;;;;;;;;;;5140091;27;20193;-40
2021/03/15 05:00:38;;;;;;;1999.90;999.90;;;;;;;;;;5139988;27;20199;-38
2021/03/15 05:03:24;;;;;;;1999.90;999.90;;;;;;;;;;5139178;27;20235;-39
2021/03/15 05:06:14;;;;;;;1999.90;999.90;;;;;;;;;;5140082;27;20199;-37
2021/03/15 05:09:03;;;;;;;1999.90;999.90;;;;;;;;;;5139973;27;20651;-38
2021/03/15 05:11:50;;;;;;;1999.90;999.90;;;;;;;;;;5140209;27;20252;-37
2021/03/15 05:14:36;;;;;;;1999.90;999.90;;;;;;;;;;5140061;27;20263;-40
2021/03/15 05:17:23;;;;;;;1999.90;999.90;;;;;;;;;;5140224;27;20309;-40
2021/03/15 05:20:13;;;;;;;1999.90;999.90;;;;;;;;;;5139760;27;20199;-39
2021/03/15 05:23:00;;;;;;;1999.90;999.90;;;;;;;;;;5140048;27;20203;-37
2021/03/15 05:25:49;;;;;;;1999.90;999.90;;;;;;;;;;5139755;27;20243;-39
2021/03/15 05:28:36;;;;;;;1999.90;999.90;;;;;;;;;;5139754;27;20265;-38
2021/03/15 05:31:22;;;;;;;1999.90;999.90;;;;;;;;;;5139243;27;20483;-38
2021/03/15 05:34:10;;;;;;;1999.90;999.90;;;;;;;;;;5139972;27;20341;-39
2021/03/15 05:36:57;;;;;;;1999.90;999.90;;;;;;;;;;5136944;27;20573;-36
2021/03/15 05:39:43;;;;;;;1999.90;999.90;;;;;;;;;;5139972;27;20255;-37
2021/03/15 05:42:42;;;;;;;1999.90;999.90;;;;;;;;;;5139435;27;20223;-36
2021/03/15 05:45:41;;;;;;;1999.90;999.90;;;;;;;;;;5139823;27;20664;-39
2021/03/15 05:48:48;;;;;;;1999.90;999.90;;;;;;;;;;5139146;27;20203;-39
2021/03/15 05:51:49;;;;;;;1999.90;999.90;;;;;;;;;;5139449;27;20610;-38
2021/03/15 05:54:55;;;;;;;1999.90;999.90;;;;;;;;;;5139305;27;20272;-37
2021/03/15 05:58:13;;;;;;;1999.90;999.90;;;;;;;;;;5138230;27;20203;-35
2021/03/15 06:01:03;;;;;;;1999.90;999.90;;;;;;;;;;5139227;27;20497;-36
2021/03/15 06:04:03;;;;;;;1999.90;999.90;;;;;;;;;;5138625;27;20327;-35
2021/03/15 06:06:53;;;;;;;1999.90;999.90;;;;;;;;;;5138359;27;20302;-35
2021/03/15 06:09:43;;;;;;;1999.90;999.90;;;;;;;;;;5128792;27;20606;-40
2021/03/15 06:12:35;;;;;;;1999.90;999.90;;;;;;;;;;5138750;27;20267;-40
2021/03/15 06:15:27;;;;;;;1999.90;999.90;;;;;;;;;;5138390;27;20423;-36
2021/03/15 06:18:14;;;;;;;1999.90;999.90;;;;;;;;;;5138537;27;20299;-38
2021/03/15 06:21:01;;;;;;;1999.90;999.90;;;;;;;;;;5138642;27;20370;-39
2021/03/15 06:23:47;;;;;;;1999.90;999.90;;;;;;;;;;5138605;27;20206;-38
2021/03/15 06:26:34;;;;;;;1999.90;999.90;;;;;;;;;;5138153;27;20347;-40
2021/03/15 06:29:20;;;;;;;1999.90;999.90;;;;;;;;;;5138106;27;20300;-34
2021/03/15 06:32:09;;;;;;;1999.90;999.90;;;;;;;;;;5137903;27;20256;-36
2021/03/15 06:34:56;;;;;;;1999.90;999.90;;;;;;;;;;5137726;27;20197;-37
2021/03/15 06:37:42;;;;;;;1999.90;999.90;;;;;;;;;;5137736;27;20249;-35
2021/03/15 06:40:29;;;;;;;1999.90;999.90;;;;;;;;;;5137856;27;20204;-38
2021/03/15 06:43:15;;;;;;;1999.90;999.90;;;;;;;;;;5137627;27;20299;-39
2021/03/15 06:46:01;;;;;;;1999.90;999.90;;;;;;;;;;5137878;27;20347;-37
2021/03/15 06:48:47;;;;;;;1999.90;999.90;;;;;;;;;;5136803;27;20347;-34
2021/03/15 06:51:35;;;;;;;1999.90;999.90;;;;;;;;;;5138357;27;20200;-37
2021/03/15 06:54:24;;;;;;;1999.90;999.90;;;;;;;;;;5138030;27;20477;-37
2021/03/15 06:57:13;;;;;;;1999.90;999.90;;;;;;;;;;5137596;27;20212;-35
2021/03/15 07:00:00;;;;;;;1999.90;999.90;;;;;;;;;;5138012;27;20195;-39
2021/03/15 07:02:55;;;;;;;1999.90;999.90;;;;;;;;;;5133048;27;20229;-37
2021/03/15 07:05:54;;;;;;;1999.90;999.90;;;;;;;;;;5123476;27;20631;-36
2021/03/15 07:08:42;;;;;;;1999.90;999.90;;;;;;;;;;5137537;27;20227;-38
2021/03/15 07:11:44;;;;;;;1999.90;999.90;;;;;;;;;;5117510;28;20192;-36
2021/03/15 07:14:31;;;;;;;1999.90;999.90;;;;;;;;;;5116184;28;20283;-39
2021/03/15 07:17:24;;;;;;;1999.90;999.90;;;;;;;;;;5116846;28;20613;-36
2021/03/15 07:20:12;;;;;;;1999.90;999.90;;;;;;;;;;5117176;28;20596;-37
2021/03/15 07:22:59;;;;;;;1999.90;999.90;;;;;;;;;;5116935;28;20228;-38
2021/03/15 07:25:46;;;;;;;1999.90;999.90;;;;;;;;;;5117258;28;20201;-38
2021/03/15 07:28:33;;;;;;;1999.90;999.90;;;;;;;;;;5116417;28;20200;-38
2021/03/15 07:31:23;;;;;;;1999.90;999.90;;;;;;;;;;5127755;28;20596;-36
2021/03/15 07:34:17;;;;;;;1999.90;999.90;;;;;;;;;;5137384;28;20216;-38
2021/03/15 07:37:04;;;;;;;1999.90;999.90;;;;;;;;;;5120191;28;20202;-36
2021/03/15 07:39:53;;;;;;;1999.90;999.90;;;;;;;;;;5123384;28;20202;-34
2021/03/15 07:45:33;;;;;;;1999.90;999.90;;;;;;;;;;5137204;27;20828;-38
2021/03/15 07:48:22;;;;;;;1999.90;999.90;;;;;;;;;;5134633;28;20617;-40
2021/03/15 07:51:09;;;;;;;1999.90;999.90;;;;;;;;;;5135159;28;20198;-40
2021/03/15 07:54:02;;;;;;;1999.90;999.90;;;;;;;;;;5135226;28;20194;-40
2021/03/15 07:56:47;;;;;;;1999.90;999.90;;;;;;;;;;5134642;28;20347;-39
2021/03/15 07:59:33;;;;;;;1999.90;999.90;;;;;;;;;;5134686;28;20223;-43
2021/03/15 08:02:21;;;;;;;1999.90;999.90;;;;;;;;;;5132871;28;20199;-43
2021/03/15 08:05:09;;;;;;;1999.90;999.90;;;;;;;;;;5133281;28;20631;-42
2021/03/15 08:07:54;;;;;;;1999.90;999.90;;;;;;;;;;5131779;28;20201;-43
2021/03/15 08:10:41;;;;;;;1999.90;999.90;;;;;;;;;;5132733;28;20217;-42
2021/03/15 08:13:30;;;;;;;1999.90;999.90;;;;;;;;;;5133164;28;20343;-36
2021/03/15 08:16:18;;;;;;;1999.90;999.90;;;;;;;;;;5133848;28;20222;-36
2021/03/15 08:19:06;;;;;;;1999.90;999.90;;;;;;;;;;5133988;28;20223;-42
2021/03/15 08:21:54;;;;;;;1999.90;999.90;;;;;;;;;;5134404;28;20264;-43
2021/03/15 08:24:43;;;;;;;1999.90;999.90;;;;;;;;;;5134087;28;20259;-43
2021/03/15 08:27:30;;;;;;;1999.90;999.90;;;;;;;;;;5134526;28;20202;-37
2021/03/15 08:30:17;;;;;;;1999.90;999.90;;;;;;;;;;5134943;28;20279;-40
2021/03/15 08:33:04;;;;;;;1999.90;999.90;;;;;;;;;;5134217;28;20275;-42
2021/03/15 08:35:54;;;;;;;1999.90;999.90;;;;;;;;;;5134560;28;20194;-41
2021/03/15 08:38:42;;;;;;;1999.90;999.90;;;;;;;;;;5133273;28;20198;-40
2021/03/15 08:41:29;;;;;;;1999.90;999.90;;;;;;;;;;5134260;28;20198;-41
2021/03/15 08:44:36;;;;;;;1999.90;999.90;;;;;;;;;;5133965;28;20321;-40
2021/03/15 08:47:40;;;;;;;1999.90;999.90;;;;;;;;;;5134170;28;20306;-40
2021/03/15 08:50:42;;;;;;;1999.90;999.90;;;;;;;;;;5134126;28;20273;-41
2021/03/15 08:53:49;;;;;;;1999.90;999.90;;;;;;;;;;5133709;28;20571;-38
2021/03/15 08:56:39;;;;;;;1999.90;999.90;;;;;;;;;;5121629;28;20194;-41
2021/03/15 08:59:33;;;;;;;1999.90;999.90;;;;;;;;;;5119921;28;20612;-41
2021/03/15 09:02:32;;;;;;;1999.90;999.90;;;;;;;;;;5120284;28;20195;-42
2021/03/15 09:05:28;;;;;;;1999.90;999.90;;;;;;;;;;5119737;28;20777;-42
2021/03/15 09:08:17;;;;;;;1999.90;999.90;;;;;;;;;;5120030;28;20336;-42
2021/03/15 09:11:06;;;;;;;1999.90;999.90;;;;;;;;;;5119832;28;20265;-42
2021/03/15 09:14:12;;;;;;;1999.90;999.90;;;;;;;;;;5119785;28;20484;-43
2021/03/15 09:17:01;;;;;;;1999.90;999.90;;;;;;;;;;5119836;28;20206;-42
2021/03/15 09:19:47;;;;;;;1999.90;999.90;;;;;;;;;;5119864;28;20194;-41
2021/03/15 09:22:34;;;;;;;1999.90;999.90;;;;;;;;;;5119302;28;20268;-41
2021/03/15 09:25:23;;;;;;;1999.90;999.90;;;;;;;;;;5119174;28;20230;-40
2021/03/15 09:28:14;;;;;;;1999.90;999.90;;;;;;;;;;5119677;28;20280;-42
2021/03/15 09:31:08;;;;;;;1999.90;999.90;;;;;;;;;;5119740;28;20206;-42
2021/03/15 09:33:54;;;;;;;1999.90;999.90;;;;;;;;;;5119501;28;20207;-41
2021/03/15 09:36:41;;;;;;;1999.90;999.90;;;;;;;;;;5115733;28;20200;-42
2021/03/15 09:39:31;;;;;;;1999.90;999.90;;;;;;;;;;5112614;28;20203;-42
2021/03/15 09:42:17;;;;;;;1999.90;999.90;;;;;;;;;;5116991;28;20633;-40
2021/03/15 09:45:03;;;;;;;1999.90;999.90;;;;;;;;;;5118893;28;20225;-40
2021/03/15 09:47:49;;;;;;;1999.90;999.90;;;;;;;;;;5119218;28;20196;-42
2021/03/15 09:50:35;;;;;;;1999.90;999.90;;;;;;;;;;5118878;28;20260;-40
2021/03/15 09:53:21;;;;;;;1999.90;999.90;;;;;;;;;;5119448;28;20204;-40
2021/03/15 09:56:08;;;;;;;1999.90;999.90;;;;;;;;;;5118998;28;20194;-38
2021/03/15 09:58:53;;;;;;;1999.90;999.90;;;;;;;;;;5119264;28;20217;-40
2021/03/15 10:01:45;;;;;;;1999.90;999.90;;;;;;;;;;5118755;28;20215;-40
2021/03/15 10:04:33;;;;;;;1999.90;999.90;;;;;;;;;;5117038;28;20310;-40
2021/03/15 10:07:19;;;;;;;1999.90;999.90;;;;;;;;;;5117432;28;20200;-36
2021/03/15 10:10:12;;;;;;;1999.90;999.90;;;;;;;;;;5118540;28;20603;-41
2021/03/15 10:13:03;;;;;;;1999.90;999.90;;;;;;;;;;5118532;28;20208;-37
2021/03/15 10:15:48;;;;;;;1999.90;999.90;;;;;;;;;;5118347;28;20186;-39
2021/03/15 10:18:34;;;;;;;1999.90;999.90;;;;;;;;;;5118406;28;20604;-36
2021/03/15 10:21:24;;;;;;;1999.90;999.90;;;;;;;;;;5117496;28;20265;-38
2021/03/15 10:24:11;;;;;;;1999.90;999.90;;;;;;;;;;5112301;28;20230;-38
2021/03/15 10:26:57;;;;;;;1999.90;999.90;;;;;;;;;;5118047;28;20198;-38
2021/03/15 10:29:42;;;;;;;1999.90;999.90;;;;;;;;;;5118375;28;20202;-38
2021/03/15 10:32:29;;;;;;;1999.90;999.90;;;;;;;;;;5118150;28;20198;-36
2021/03/15 10:35:18;;;;;;;1999.90;999.90;;;;;;;;;;5117566;28;20604;-40
2021/03/15 10:38:05;;;;;;;1999.90;999.90;;;;;;;;;;5117484;28;20206;-41
2021/03/15 10:40:54;;;;;;;1999.90;999.90;;;;;;;;;;5117233;28;20206;-41
2021/03/15 10:43:42;;;;;;;1999.90;999.90;;;;;;;;;;5117454;28;20226;-40
2021/03/15 10:46:29;;;;;;;1999.90;999.90;;;;;;;;;;5117567;28;20199;-42
2021/03/15 10:49:17;;;;;;;1999.90;999.90;;;;;;;;;;5117436;28;20219;-41
2021/03/15 10:52:04;;;;;;;1999.90;999.90;;;;;;;;;;5117477;28;20347;-40
2021/03/15 10:54:50;;;;;;;1999.90;999.90;;;;;;;;;;5117814;28;20199;-40
2021/03/15 10:57:36;;;;;;;1999.90;999.90;;;;;;;;;;5117581;28;20198;-40
2021/03/15 11:00:22;;;;;;;1999.90;999.90;;;;;;;;;;5117266;28;20256;-40
2021/03/15 11:03:08;;;;;;;1999.90;999.90;;;;;;;;;;5117836;28;20198;-39
2021/03/15 11:06:10;;;;;;;1999.90;999.90;;;;;;;;;;5115224;28;20301;-39
2021/03/15 11:09:00;;;;;;;1999.90;999.90;;;;;;;;;;5096814;28;20199;-40
2021/03/15 11:11:52;;;;;;;1999.90;999.90;;;;;;;;;;5097318;28;20205;-39
2021/03/15 11:15:09;;;;;;;1999.90;999.90;;;;;;;;;;5099322;28;20201;-40
2021/03/15 11:18:02;;;;;;;1999.90;999.90;;;;;;;;;;5115390;28;20474;-40
2021/03/15 11:20:53;;;;;;;1999.90;999.90;;;;;;;;;;5101779;28;20354;-42
2021/03/15 11:23:39;;;;;;;1999.90;999.90;;;;;;;;;;5114746;28;20265;-40
2021/03/15 11:26:29;;;;;;;1999.90;999.90;;;;;;;;;;5112567;28;20354;-38
2021/03/15 11:29:15;;;;;;;1999.90;999.90;;;;;;;;;;5113882;28;20199;-40
2021/03/15 11:32:07;;;;;;;1999.90;999.90;;;;;;;;;;5114639;28;20289;-41
2021/03/15 11:34:53;;;;;;;1999.90;999.90;;;;;;;;;;5114749;28;20202;-41
2021/03/15 11:37:46;;;;;;;1999.90;999.90;;;;;;;;;;5115232;28;20324;-39
2021/03/15 11:40:35;;;;;;;1999.90;999.90;;;;;;;;;;5109045;28;20281;-42
2021/03/15 11:43:26;;;;;;;1999.90;999.90;;;;;;;;;;5113668;28;20624;-42
2021/03/15 11:46:16;;;;;;;1999.90;999.90;;;;;;;;;;5114288;28;20207;-40
2021/03/15 11:49:02;;;;;;;1999.90;999.90;;;;;;;;;;5116368;28;20287;-42
2021/03/15 11:51:52;;;;;;;1999.90;999.90;;;;;;;;;;5115572;28;20340;-42
2021/03/15 11:54:38;;;;;;;1999.90;999.90;;;;;;;;;;5117277;28;20328;-43
2021/03/15 11:57:30;;;;;;;1999.90;999.90;;;;;;;;;;5106138;28;20207;-43
2021/03/15 12:00:26;;;;;;;1999.90;999.90;;;;;;;;;;5115946;28;20202;-42
2021/03/15 12:03:12;;;;;;;1999.90;999.90;;;;;;;;;;5115584;28;20357;-42
2021/03/15 12:06:00;;;;;;;1999.90;999.90;;;;;;;;;;5105326;28;20292;-43
2021/03/15 12:08:49;;;;;;;1999.90;999.90;;;;;;;;;;5109972;28;20359;-44
2021/03/15 12:11:37;;;;;;;1999.90;999.90;;;;;;;;;;5108552;28;20210;-44
2021/03/15 12:14:23;;;;;;;1999.90;999.90;;;;;;;;;;5116538;28;20458;-42
2021/03/15 12:17:10;;;;;;;1999.90;999.90;;;;;;;;;;5116368;28;20303;-43
2021/03/15 12:19:58;;;;;;;1999.90;999.90;;;;;;;;;;5115364;28;20547;-43
2021/03/15 12:22:46;;;;;;;1999.90;999.90;;;;;;;;;;5116585;28;20199;-43
2021/03/15 12:25:32;;;;;;;1999.90;999.90;;;;;;;;;;5117022;28;20498;-43
2021/03/15 12:28:17;;;;;;;1999.90;999.90;;;;;;;;;;5116886;28;20210;-44
2021/03/15 12:31:06;;;;;;;1999.90;999.90;;;;;;;;;;5114649;28;20343;-43
2021/03/15 12:33:53;;;;;;;1999.90;999.90;;;;;;;;;;5119769;28;20215;-43
2021/03/15 12:36:43;;;;;;;1999.90;999.90;;;;;;;;;;5117524;28;20198;-43
2021/03/15 12:39:30;;;;;;;1999.90;999.90;;;;;;;;;;5120111;28;20206;-44
2021/03/15 12:42:15;;;;;;;1999.90;999.90;;;;;;;;;;5119910;28;20352;-43
2021/03/15 12:45:01;;;;;;;1999.90;999.90;;;;;;;;;;5119784;28;20230;-43
2021/03/15 12:47:46;;;;;;;1999.90;999.90;;;;;;;;;;5119702;28;20199;-43
2021/03/15 12:50:33;;;;;;;1999.90;999.90;;;;;;;;;;5119188;28;20202;-43
2021/03/15 12:53:21;;;;;;;1999.90;999.90;;;;;;;;;;5119827;28;21313;-43
2021/03/15 12:56:06;;;;;;;1999.90;999.90;;;;;;;;;;5119864;28;20202;-43
2021/03/15 12:58:52;;;;;;;1999.90;999.90;;;;;;;;;;5120103;28;20253;-43
2021/03/15 13:01:37;;;;;;;1999.90;999.90;;;;;;;;;;5120075;28;20202;-42
2021/03/15 13:04:23;;;;;;;1999.90;999.90;;;;;;;;;;5115286;28;20588;-43
2021/03/15 13:07:12;;;;;;;1999.90;999.90;;;;;;;;;;5119525;28;20287;-43
2021/03/15 13:09:58;;;;;;;1999.90;999.90;;;;;;;;;;5119715;28;20202;-42
2021/03/15 13:12:46;;;;;;;1999.90;999.90;;;;;;;;;;5117239;28;20207;-44
2021/03/15 13:15:37;;;;;;;1999.90;999.90;;;;;;;;;;5119741;28;20191;-42
2021/03/15 13:18:22;;;;;;;1999.90;999.90;;;;;;;;;;5098950;28;20533;-42
2021/03/15 13:21:08;;;;;;;1999.90;999.90;;;;;;;;;;5099027;28;20349;-42
2021/03/15 13:24:00;;;;;;;1999.90;999.90;;;;;;;;;;5103489;28;20298;-42
2021/03/15 13:26:49;;;;;;;1999.90;999.90;;;;;;;;;;5119247;28;20218;-41
2021/03/15 13:29:46;;;;;;;1999.90;999.90;;;;;;;;;;5119427;28;20283;-42
2021/03/15 13:32:32;;;;;;;1999.90;999.90;;;;;;;;;;5114650;28;20226;-41
2021/03/15 13:35:19;;;;;;;1999.90;999.90;;;;;;;;;;5116027;28;20201;-41
2021/03/15 13:38:05;;;;;;;1999.90;999.90;;;;;;;;;;5118859;28;20206;-41
2021/03/15 13:40:52;;;;;;;1999.90;999.90;;;;;;;;;;5118809;28;20194;-39
2021/03/15 13:43:38;;;;;;;1999.90;999.90;;;;;;;;;;5119312;28;20298;-41
2021/03/15 13:46:28;;;;;;;1999.90;999.90;;;;;;;;;;5098350;28;20230;-39
2021/03/15 13:49:13;;;;;;;1999.90;999.90;;;;;;;;;;5098829;28;20215;-42
2021/03/15 13:52:00;;;;;;;1999.90;999.90;;;;;;;;;;5099644;28;20223;-41
2021/03/15 13:54:48;;;;;;;1999.90;999.90;;;;;;;;;;5118654;28;20215;-42
2021/03/15 13:57:34;;;;;;;1999.90;999.90;;;;;;;;;;5118783;28;20219;-40
2021/03/15 14:00:20;;;;;;;1999.90;999.90;;;;;;;;;;5118603;28;20590;-41
2021/03/15 14:03:06;;;;;;;1999.90;999.90;;;;;;;;;;5118675;28;20201;-41
2021/03/15 14:05:54;;;;;;;1999.90;999.90;;;;;;;;;;5117963;28;20690;-42
2021/03/15 14:08:40;;;;;;;1999.90;999.90;;;;;;;;;;5118336;28;20202;-43
2021/03/15 14:11:25;;;;;;;1999.90;999.90;;;;;;;;;;5118369;28;20348;-41
2021/03/15 14:14:12;;;;;;;1999.90;999.90;;;;;;;;;;5117770;28;20216;-41
2021/03/15 14:16:58;;;;;;;1999.90;999.90;;;;;;;;;;5114959;28;20345;-42
2021/03/15 14:19:44;;;;;;;1999.90;999.90;;;;;;;;;;5118374;28;20197;-40
2021/03/15 14:22:30;;;;;;;1999.90;999.90;;;;;;;;;;5108005;28;20211;-42
2021/03/15 14:25:17;;;;;;;1999.90;999.90;;;;;;;;;;5097211;28;20219;-42
2021/03/15 14:28:03;;;;;;;1999.90;999.90;;;;;;;;;;5097642;28;20596;-41
2021/03/15 14:30:52;;;;;;;1999.90;999.90;;;;;;;;;;5096988;28;20347;-41
2021/03/15 14:33:38;;;;;;;1999.90;999.90;;;;;;;;;;5097221;28;20654;-39
2021/03/15 14:36:23;;;;;;;1999.90;999.90;;;;;;;;;;5107974;28;20605;-42
2021/03/15 14:39:09;;;;;;;1999.90;999.90;;;;;;;;;;5118108;28;20202;-40
2021/03/15 14:42:00;;;;;;;1999.90;999.90;;;;;;;;;;5117386;28;20277;-43
2021/03/15 14:44:59;;;;;;;1999.90;999.90;;;;;;;;;;5117622;28;20232;-43
2021/03/15 14:48:11;;;;;;;1999.90;999.90;;;;;;;;;;5117553;28;20660;-43
2021/03/15 14:51:02;;;;;;;1999.90;999.90;;;;;;;;;;5117772;28;20206;-40
2021/03/15 14:53:49;;;;;;;1999.90;999.90;;;;;;;;;;5116989;28;20206;-33
2021/03/15 14:56:35;;;;;;;1999.90;999.90;;;;;;;;;;5117431;28;20204;-37
2021/03/15 14:59:21;;;;;;;1999.90;999.90;;;;;;;;;;5117492;28;20826;-38
2021/03/15 15:02:07;;;;;;;1999.90;999.90;;;;;;;;;;5116963;28;20202;-35
2021/03/15 15:04:54;;;;;;;1999.90;999.90;;;;;;;;;;5116804;28;20308;-38
2021/03/15 15:07:47;;;;;;;1999.90;999.90;;;;;;;;;;5116768;28;20354;-36
2021/03/15 15:10:33;;;;;;;1999.90;999.90;;;;;;;;;;5116727;28;20199;-33
2021/03/15 15:13:19;;;;;;;1999.90;999.90;;;;;;;;;;5117412;28;20491;-36
2021/03/15 15:16:07;;;;;;;1999.90;999.90;;;;;;;;;;5117123;28;20986;-37
2021/03/15 15:18:58;;;;;;;1999.90;999.90;;;;;;;;;;5116918;28;20198;-35
2021/03/15 15:21:45;;;;;;;1999.90;999.90;;;;;;;;;;5117105;28;20474;-42
2021/03/15 15:24:33;;;;;;;1999.90;999.90;;;;;;;;;;5109673;28;20285;-42
2021/03/15 15:27:19;;;;;;;1999.90;999.90;;;;;;;;;;5108847;28;20197;-41
2021/03/15 15:30:07;;;;;;;1999.90;999.90;;;;;;;;;;5103933;28;20595;-42
2021/03/15 15:32:53;;;;;;;1999.90;999.90;;;;;;;;;;5096088;28;20278;-42
2021/03/15 15:35:38;;;;;;;1999.90;999.90;;;;;;;;;;5095612;28;20265;-41
2021/03/15 15:38:30;;;;;;;1999.90;999.90;;;;;;;;;;5096695;28;20358;-42
2021/03/15 15:41:19;;;;;;;1999.90;999.90;;;;;;;;;;5096018;28;20210;-42
2021/03/15 15:44:05;;;;;;;1999.90;999.90;;;;;;;;;;5095944;28;20255;-42